»·PEaware :: SWA458 KBUR-KLAS

SWA458 :: KBUR-KLAS

FLIGHT INFORMATION

Flight Status: Arrived
Operator:
Southwest Airlines
More flights by this operator :: More flights under this callsign
Pilot: Justin R. (12299)
Aircraft: BOEING 737-800
(B738)
More flights by this aircraft type
Origin: KBUR Bob Hope-Burbank
United States
Destination: KLAS McCarran Intl
United States
More flights between these airports :: More routes between these airports
Route: +SLAPP1 MISEN KEPEC6
File this flight plan on PilotEdge
Remarks: / L SWA458
Altitude:
(Current/Filed)
270ft
Speed:
(Current/Filed)
300kts
Departed: 13-Apr-18 05:12 PM
Arrived: 13-Apr-18 05:57 PM
Distance/Time
Traveled:
194nm/0:45
Distance/Time
To Go:
Arrived

Flight Plot

Page will automatically refresh every two minutes.

Flight plan parsing failed; only flown route is shown


Map Options




Map Legend


Flown Route
Filed Route
Departure Airport
Arrival Airport
Navaid (VOR, NDB)
Fix

Horizontal Profiles

Position Reports

Time Latitude Longitude Heading Altitude Ground
Speed
13-Apr-18 16:52 34.196820 -118.352374 179 785ft 0kts
13-Apr-18 16:53 34.196820 -118.352374 179 785ft 0kts
13-Apr-18 16:54 34.196820 -118.352374 179 785ft 0kts
13-Apr-18 16:55 34.196820 -118.352374 179 785ft 0kts
13-Apr-18 16:56 34.196820 -118.352374 179 785ft 0kts
13-Apr-18 16:57 34.196820 -118.352374 179 785ft 0kts
13-Apr-18 16:58 34.196820 -118.352374 179 785ft 0kts
13-Apr-18 16:59 34.196820 -118.352374 179 785ft 0kts
13-Apr-18 17:00 34.196820 -118.352374 179 785ft 0kts
13-Apr-18 17:01 34.196820 -118.352374 179 785ft 0kts
13-Apr-18 17:02 34.196820 -118.352374 179 785ft 0kts
13-Apr-18 17:03 34.196820 -118.352374 179 785ft 0kts
13-Apr-18 17:04 34.196820 -118.352374 179 785ft 0kts
13-Apr-18 17:05 34.197144 -118.352053 269 785ft 0kts
13-Apr-18 17:06 34.197201 -118.353595 271 785ft 12kts
13-Apr-18 17:07 34.202239 -118.356330 348 785ft 26kts
13-Apr-18 17:08 34.209314 -118.358241 347 785ft 27kts
13-Apr-18 17:09 34.211292 -118.358781 340 785ft 0kts
13-Apr-18 17:10 34.211968 -118.359529 297 785ft 21kts
13-Apr-18 17:11 34.188812 -118.354440 172 1107ft 200kts
13-Apr-18 17:12 34.136498 -118.396238 223 2246ft 236kts
13-Apr-18 17:13 34.097531 -118.441519 222 3077ft 170kts
13-Apr-18 17:14 34.061928 -118.479047 222 4014ft 177kts
13-Apr-18 17:15 34.064067 -118.519708 346 4708ft 180kts
13-Apr-18 17:16 34.123126 -118.527410 352 6860ft 259kts
13-Apr-18 17:17 34.192410 -118.537969 352 8768ft 272kts
13-Apr-18 17:18 34.260345 -118.512087 41 11052ft 308kts
13-Apr-18 17:19 34.322531 -118.440552 41 13123ft 319kts
13-Apr-18 17:20 34.386631 -118.367706 32 14694ft 321kts
13-Apr-18 17:21 34.459381 -118.311736 32 16845ft 329kts
13-Apr-18 17:22 34.533126 -118.246616 31 19029ft 336kts
13-Apr-18 17:23 34.608020 -118.180464 31 21193ft 344kts
13-Apr-18 17:24 34.671762 -118.096365 65 23309ft 382kts
13-Apr-18 17:25 34.693126 -117.971896 72 23335ft 388kts
13-Apr-18 17:26 34.700954 -117.842434 78 25105ft 399kts
13-Apr-18 17:27 34.707662 -117.707514 79 27010ft 422kts
13-Apr-18 17:28 34.713043 -117.562337 80 27358ft 455kts
13-Apr-18 17:29 34.738207 -117.414312 64 27344ft 453kts
13-Apr-18 17:30 34.776339 -117.271362 64 27339ft 452kts
13-Apr-18 17:31 34.813949 -117.129366 64 27329ft 452kts
13-Apr-18 17:32 34.851665 -116.985803 63 27317ft 450kts
13-Apr-18 17:33 34.888969 -116.842988 62 27313ft 446kts
13-Apr-18 17:34 34.929661 -116.703542 48 27303ft 426kts
13-Apr-18 17:35 34.995603 -116.589569 44 27288ft 385kts
13-Apr-18 17:36 35.054666 -116.486004 45 25799ft 370kts
13-Apr-18 17:37 35.111991 -116.386690 38 24309ft 348kts
13-Apr-18 17:38 35.178463 -116.305697 37 24326ft 352kts
13-Apr-18 17:39 35.247065 -116.220547 37 24323ft 353kts
13-Apr-18 17:40 35.315356 -116.135038 37 24322ft 353kts
13-Apr-18 17:41 35.383944 -116.048753 38 22203ft 352kts
13-Apr-18 17:42 35.450184 -115.965037 39 19735ft 342kts
13-Apr-18 17:43 35.514717 -115.883304 40 17261ft 334kts
13-Apr-18 17:44 35.577762 -115.803233 41 15179ft 317kts
13-Apr-18 17:45 35.635960 -115.729058 41 14032ft 289kts
13-Apr-18 17:46 35.690033 -115.660115 41 13303ft 278kts
13-Apr-18 17:47 35.740189 -115.587257 68 13306ft 294kts
13-Apr-18 17:48 35.747234 -115.484912 81 13295ft 302kts
13-Apr-18 17:49 35.751999 -115.382365 81 11411ft 309kts
13-Apr-18 17:50 35.757812 -115.278957 81 9449ft 309kts
13-Apr-18 17:51 35.798799 -115.205083 5 7717ft 278kts
13-Apr-18 17:52 35.871538 -115.217186 351 6181ft 272kts
13-Apr-18 17:53 35.940805 -115.231865 351 5998ft 253kts
13-Apr-18 17:54 36.004228 -115.215003 31 4648ft 237kts
13-Apr-18 17:55 36.055934 -115.180731 20 2749ft 209kts
13-Apr-18 17:56 36.094434 -115.159409 43 2149ft 16kts
13-Apr-18 17:57 36.095577 -115.157309 81 2149ft 0kts
13-Apr-18 17:58 36.094744 -115.154423 126 2149ft 27kts
13-Apr-18 17:59 36.089050 -115.156703 204 2149ft 23kts
13-Apr-18 18:00 36.082519 -115.155510 154 2149ft 26kts
13-Apr-18 18:01 36.081062 -115.150104 89 2149ft 15kts
13-Apr-18 18:02 36.080996 -115.147709 62 2149ft 0kts
13-Apr-18 18:03 36.081009 -115.147672 64 2149ft 0kts
13-Apr-18 18:04 36.081009 -115.147672 64 2149ft 0kts

Navigation Log

Ident Type
Flight plan parsing failed, navigation log unavailable